createdAt,value
2023-04-11T00:01:17.852Z,98622.88
2023-04-11T00:03:46.231Z,98623.19
2023-04-11T00:06:16.314Z,98617.47
2023-04-11T00:08:50.742Z,98587.44
2023-04-11T00:11:19.140Z,98592.84
2023-04-11T00:13:47.762Z,98593.22
2023-04-11T00:16:16.986Z,98582.53
2023-04-11T00:18:45.902Z,98564.31
2023-04-11T00:21:13.595Z,98562.63
2023-04-11T00:23:41.359Z,98574.19
2023-04-11T00:26:10.472Z,98584.31
2023-04-11T00:28:38.085Z,98591.69
2023-04-11T00:31:06.009Z,98591.00
2023-04-11T00:33:33.618Z,98600.06
2023-04-11T00:36:01.278Z,98597.88
2023-04-11T00:38:29.136Z,98587.13
2023-04-11T00:40:57.085Z,98589.44
2023-04-11T00:43:26.059Z,98585.72
2023-04-11T00:45:54.092Z,98605.09
2023-04-11T00:48:21.877Z,98606.91
2023-04-11T00:50:49.567Z,98636.03
2023-04-11T00:53:18.802Z,98630.75
2023-04-11T00:55:46.794Z,98646.53
2023-04-11T00:58:16.552Z,98650.97
2023-04-11T01:00:49.718Z,98643.59
2023-04-11T01:03:19.332Z,98645.06
2023-04-11T01:05:48.041Z,98656.38
2023-04-11T01:08:16.339Z,98657.53
2023-04-11T01:10:44.286Z,98645.94
2023-04-11T01:13:12.158Z,98653.22
2023-04-11T01:15:40.052Z,98653.03
2023-04-11T01:18:09.649Z,98663.00
2023-04-11T01:20:38.686Z,98670.19
2023-04-11T01:23:07.092Z,98655.84
2023-04-11T01:25:36.163Z,98646.50
2023-04-11T01:28:04.461Z,98637.13
2023-04-11T01:30:32.061Z,98647.25
2023-04-11T01:32:59.770Z,98649.41
2023-04-11T01:35:27.751Z,98654.75
2023-04-11T01:37:55.548Z,98653.53
2023-04-11T01:40:24.021Z,98657.66
2023-04-11T01:42:53.173Z,98653.63
2023-04-11T01:45:21.290Z,98658.59
2023-04-11T01:47:50.844Z,98655.25
2023-04-11T01:50:18.614Z,98644.22
2023-04-11T01:52:46.498Z,98641.31
2023-04-11T01:55:14.172Z,98645.16
2023-04-11T01:57:41.790Z,98653.19
2023-04-11T02:00:12.228Z,98654.03
2023-04-11T02:02:40.028Z,98660.66
2023-04-11T02:05:08.385Z,98665.13
2023-04-11T02:07:36.887Z,98665.34
2023-04-11T02:10:05.378Z,98664.22
2023-04-11T02:12:32.939Z,98674.78
2023-04-11T02:15:00.705Z,98681.19
2023-04-11T02:17:31.182Z,98673.09
2023-04-11T02:19:58.949Z,98686.03
2023-04-11T02:22:26.612Z,98679.00
2023-04-11T02:24:54.288Z,98679.56
2023-04-11T02:27:22.276Z,98671.53
2023-04-11T02:29:49.844Z,98685.03
2023-04-11T02:32:17.459Z,98685.19
2023-04-11T02:34:46.662Z,98687.03
2023-04-11T02:37:14.277Z,98687.16
2023-04-11T02:39:41.860Z,98687.81
2023-04-11T02:42:09.428Z,98667.69
2023-04-11T02:44:37.053Z,98669.03
2023-04-11T02:47:04.701Z,98664.00
2023-04-11T02:49:32.326Z,98656.88
2023-04-11T02:52:01.324Z,98652.81
2023-04-11T02:54:29.014Z,98638.97
2023-04-11T02:56:56.783Z,98631.59
2023-04-11T02:59:26.297Z,98643.22
2023-04-11T03:01:58.433Z,98630.56
2023-04-11T03:04:26.245Z,98638.75
2023-04-11T03:06:54.043Z,98629.50
2023-04-11T03:09:24.172Z,98629.34
2023-04-11T03:11:51.720Z,98626.66
2023-04-11T03:14:19.314Z,98617.22
2023-04-11T03:16:46.901Z,98628.13
2023-04-11T03:19:14.494Z,98631.34
2023-04-11T03:21:42.389Z,98638.56
2023-04-11T03:24:12.530Z,98637.88
2023-04-11T03:26:41.625Z,98638.94
2023-04-11T03:29:09.193Z,98650.00
2023-04-11T03:31:36.820Z,98653.66
2023-04-11T03:34:04.443Z,98665.94
2023-04-11T03:36:32.210Z,98665.69
2023-04-11T03:38:59.835Z,98654.56
2023-04-11T03:41:27.517Z,98665.63
2023-04-11T03:43:56.474Z,98675.66
2023-04-11T03:46:24.059Z,98677.81
2023-04-11T03:48:51.815Z,98676.13
2023-04-11T03:51:19.426Z,98666.47
2023-04-11T03:53:47.043Z,98666.84
2023-04-11T03:56:14.710Z,98665.81
2023-04-11T03:58:42.752Z,98666.66
2023-04-11T04:01:11.622Z,98673.28
2023-04-11T04:03:39.455Z,98678.41
2023-04-11T04:06:07.724Z,98683.69
2023-04-11T04:08:35.396Z,98677.22
2023-04-11T04:11:02.957Z,98684.78
2023-04-11T04:13:30.622Z,98680.19
2023-04-11T04:15:58.420Z,98677.44
2023-04-11T04:18:27.355Z,98688.00
2023-04-11T04:20:54.970Z,98689.00
2023-04-11T04:23:23.766Z,98687.34
2023-04-11T04:25:51.699Z,98690.69
2023-04-11T04:28:22.367Z,98686.03
2023-04-11T04:30:54.045Z,98693.84
2023-04-11T04:33:21.719Z,98688.59
2023-04-11T04:35:52.301Z,98704.41
2023-04-11T04:38:19.931Z,98712.78
2023-04-11T04:40:50.290Z,98702.88
2023-04-11T04:43:23.363Z,98699.72
2023-04-11T04:45:51.066Z,98704.78
2023-04-11T04:48:18.859Z,98696.84
2023-04-11T04:50:46.558Z,98707.00
2023-04-11T04:53:15.539Z,98704.50
2023-04-11T04:55:43.764Z,98716.63
2023-04-11T04:58:14.038Z,98717.06
2023-04-11T05:00:41.611Z,98714.94
2023-04-11T05:03:10.871Z,98718.03
2023-04-11T05:05:38.688Z,98727.84
2023-04-11T05:08:06.428Z,98723.22
2023-04-11T05:10:35.316Z,98730.19
2023-04-11T05:13:02.954Z,98733.84
2023-04-11T05:15:30.735Z,98738.53
2023-04-11T05:17:58.528Z,98722.44
2023-04-11T05:20:26.971Z,98722.31
2023-04-11T05:22:54.666Z,98731.91
2023-04-11T05:25:22.516Z,98741.06
2023-04-11T05:27:51.710Z,98753.06
2023-04-11T05:30:19.437Z,98748.50
2023-04-11T05:32:47.648Z,98746.72
2023-04-11T05:35:15.409Z,98756.13
2023-04-11T05:37:44.782Z,98762.84
2023-04-11T05:40:12.822Z,98764.72
2023-04-11T05:42:40.578Z,98763.69
2023-04-11T05:45:11.425Z,98768.34
2023-04-11T05:47:39.044Z,98778.66
2023-04-11T05:50:08.515Z,98776.81
2023-04-11T05:52:36.099Z,98772.84
2023-04-11T05:55:04.517Z,98779.53
2023-04-11T05:57:32.108Z,98786.31
2023-04-11T06:00:01.889Z,98783.63
2023-04-11T06:02:31.366Z,98797.06
2023-04-11T06:04:59.160Z,98781.06
2023-04-11T06:07:27.539Z,98787.78
2023-04-11T06:09:55.768Z,98801.53
2023-04-11T06:12:23.385Z,98787.56
2023-04-11T06:14:50.986Z,98784.22
2023-04-11T06:17:18.609Z,98793.47
2023-04-11T06:19:47.806Z,98788.50
2023-04-11T06:22:15.955Z,98783.25
2023-04-11T06:24:45.114Z,98792.38
2023-04-11T06:27:13.433Z,98795.50
2023-04-11T06:29:43.540Z,98797.00
2023-04-11T06:32:12.534Z,98805.81
2023-04-11T06:34:40.258Z,98794.97
2023-04-11T06:37:09.537Z,98802.66
2023-04-11T06:39:37.367Z,98805.16
2023-04-11T06:42:05.422Z,98805.97
2023-04-11T06:44:33.112Z,98804.50
2023-04-11T06:47:01.081Z,98810.03
2023-04-11T06:49:29.129Z,98812.47
2023-04-11T06:51:59.361Z,98824.75
2023-04-11T06:54:28.346Z,98826.09
2023-04-11T06:56:57.207Z,98834.41
2023-04-11T06:59:24.880Z,98825.84
2023-04-11T07:01:56.080Z,98832.47
2023-04-11T07:04:23.956Z,98845.13
2023-04-11T07:06:51.707Z,98833.63
2023-04-11T07:09:19.543Z,98841.03
2023-04-11T07:11:48.634Z,98846.84
2023-04-11T07:14:16.517Z,98829.84
2023-04-11T07:16:44.282Z,98832.34
2023-04-11T07:19:12.134Z,98794.38
2023-04-11T07:21:39.828Z,98834.59
2023-04-11T07:24:07.884Z,98843.00
2023-04-11T07:26:38.673Z,98829.59
2023-04-11T07:29:10.385Z,98828.97
2023-04-11T07:31:39.281Z,98825.72
2023-04-11T07:34:06.949Z,98829.69
2023-04-11T07:36:34.885Z,98828.28
2023-04-11T07:39:03.131Z,98840.41
2023-04-11T07:41:30.921Z,98841.16
2023-04-11T07:43:58.837Z,98837.75
2023-04-11T07:46:27.878Z,98833.31
2023-04-11T07:48:55.597Z,98842.16
2023-04-11T07:51:23.510Z,98834.50
2023-04-11T07:53:51.715Z,98846.13
2023-04-11T07:56:20.818Z,98840.53
2023-04-11T07:58:48.706Z,98853.44
2023-04-11T08:01:23.913Z,98845.06
2023-04-11T08:03:54.400Z,98853.59
2023-04-11T08:06:22.478Z,98855.84
2023-04-11T08:08:50.782Z,98854.44
2023-04-11T08:11:18.446Z,98847.06
2023-04-11T08:13:48.147Z,98840.38
2023-04-11T08:16:16.546Z,98852.34
2023-04-11T08:18:45.878Z,98857.69
2023-04-11T08:21:15.479Z,98860.25
2023-04-11T08:23:43.199Z,98854.38
2023-04-11T08:26:12.808Z,98845.38
2023-04-11T08:28:42.664Z,98867.38
2023-04-11T08:31:13.206Z,98862.47
2023-04-11T08:33:41.470Z,98866.69
2023-04-11T08:36:11.039Z,98872.25
2023-04-11T08:38:40.649Z,98865.41
2023-04-11T08:41:08.600Z,98851.59
2023-04-11T08:43:36.827Z,98866.91
2023-04-11T08:46:04.871Z,98885.19
2023-04-11T08:48:32.957Z,98865.75
2023-04-11T08:51:01.109Z,98867.38
2023-04-11T08:53:29.350Z,98874.31
2023-04-11T08:55:59.812Z,98882.00
2023-04-11T08:58:27.752Z,98880.34
2023-04-11T09:00:55.471Z,98871.69
2023-04-11T09:03:23.204Z,98877.22
2023-04-11T09:05:51.076Z,98882.22
2023-04-11T09:08:18.995Z,98893.13
2023-04-11T09:10:47.075Z,98903.06
2023-04-11T09:13:22.059Z,98892.56
2023-04-11T09:15:49.886Z,98896.72
2023-04-11T09:18:35.636Z,98891.50
2023-04-11T09:21:06.008Z,98873.66
2023-04-11T09:23:33.778Z,98892.75
2023-04-11T09:26:01.422Z,98884.91
2023-04-11T09:28:40.644Z,98890.16
2023-04-11T09:31:08.847Z,98879.75
2023-04-11T09:33:36.741Z,98886.75
2023-04-11T09:36:19.209Z,98896.97
2023-04-11T09:38:46.944Z,98905.81
2023-04-11T09:41:14.809Z,98892.56
2023-04-11T09:43:55.510Z,98877.13
2023-04-11T09:46:23.800Z,98902.34
2023-04-11T09:48:54.544Z,98889.31
2023-04-11T09:51:34.952Z,98900.44
2023-04-11T09:54:04.543Z,98893.84
2023-04-11T09:56:34.047Z,98886.50
2023-04-11T09:59:04.123Z,98899.81
2023-04-11T10:01:31.793Z,98915.50
2023-04-11T10:04:00.898Z,98926.31
2023-04-11T10:06:33.654Z,98928.28
2023-04-11T10:09:07.966Z,98930.44
2023-04-11T10:11:35.826Z,98915.00
2023-04-11T10:14:05.323Z,98906.59
2023-04-11T10:16:34.270Z,98911.84
2023-04-11T10:19:27.184Z,98913.72
2023-04-11T10:21:54.792Z,98902.50
2023-04-11T10:24:23.166Z,98904.19
2023-04-11T10:26:52.553Z,98914.28
2023-04-11T10:29:50.660Z,98936.19
2023-04-11T10:32:26.002Z,98940.06
2023-04-11T10:35:33.555Z,98948.94
2023-04-11T10:38:01.231Z,98936.47
2023-04-11T10:40:28.965Z,98932.31
2023-04-11T10:42:57.370Z,98925.91
2023-04-11T10:45:27.977Z,98927.81
2023-04-11T10:48:10.347Z,98925.97
2023-04-11T10:50:41.948Z,98918.84
2023-04-11T10:53:14.305Z,98915.25
2023-04-11T10:55:47.292Z,98918.16
2023-04-11T10:58:16.712Z,98918.97
2023-04-11T11:01:26.647Z,98915.97
2023-04-11T11:04:05.775Z,98902.47
2023-04-11T11:06:46.072Z,98907.38
2023-04-11T11:09:23.417Z,98912.13
2023-04-11T11:12:06.870Z,98905.59
2023-04-11T11:14:34.846Z,98910.72
2023-04-11T11:17:04.214Z,98903.63
2023-04-11T11:19:32.542Z,98900.41
2023-04-11T11:22:03.591Z,98903.53
2023-04-11T11:24:31.859Z,98902.00
2023-04-11T11:26:59.794Z,98904.75
2023-04-11T11:29:35.155Z,98896.59
2023-04-11T11:32:04.430Z,98901.13
2023-04-11T11:34:34.123Z,98897.59
2023-04-11T11:37:04.386Z,98900.47
2023-04-11T11:39:33.846Z,98908.19
2023-04-11T11:42:01.648Z,98904.56
2023-04-11T11:44:31.127Z,98908.78
2023-04-11T11:47:03.990Z,98904.78
2023-04-11T11:49:45.575Z,98916.59
2023-04-11T11:52:13.516Z,98906.38
2023-04-11T11:54:45.146Z,98906.53
2023-04-11T11:57:12.790Z,98919.91
2023-04-11T11:59:40.481Z,98911.09
2023-04-11T12:02:09.894Z,98917.13
2023-04-11T12:04:37.797Z,98912.69
2023-04-11T12:07:09.666Z,98911.13
2023-04-11T12:09:37.328Z,98892.44
2023-04-11T12:12:09.757Z,98908.50
2023-04-11T12:14:37.456Z,98893.56
2023-04-11T12:17:05.310Z,98903.22
2023-04-11T12:19:34.272Z,98901.72
2023-04-11T12:22:01.891Z,98897.38
2023-04-11T12:24:29.517Z,98877.31
2023-04-11T12:27:06.433Z,98883.50
2023-04-11T12:29:34.743Z,98878.22
2023-04-11T12:32:02.345Z,98887.25
2023-04-11T12:34:29.985Z,98869.00
2023-04-11T12:36:58.930Z,98872.09
2023-04-11T12:39:26.535Z,98883.75
2023-04-11T12:41:54.199Z,98878.66
2023-04-11T12:44:21.835Z,98888.31
2023-04-11T12:46:49.465Z,98883.41
2023-04-11T12:49:17.128Z,98882.69
2023-04-11T12:51:44.708Z,98893.81
2023-04-11T12:54:13.964Z,98890.03
2023-04-11T12:56:41.592Z,98902.06
2023-04-11T12:59:09.186Z,98887.69
2023-04-11T13:01:37.343Z,98880.59
2023-04-11T13:04:05.134Z,98872.06
2023-04-11T13:06:33.370Z,98879.38
2023-04-11T13:09:01.663Z,98877.25
2023-04-11T13:11:30.590Z,98876.09
2023-04-11T13:14:00.425Z,98882.50
2023-04-11T13:16:28.042Z,98868.91
2023-04-11T13:18:55.911Z,98887.22
2023-04-11T13:21:24.412Z,98887.09
2023-04-11T13:23:52.064Z,98883.47
2023-04-11T13:26:19.647Z,98889.09
2023-04-11T13:28:48.628Z,98876.03
2023-04-11T13:31:16.261Z,98870.19
2023-04-11T13:33:44.895Z,98886.03
2023-04-11T13:36:12.725Z,98887.16
2023-04-11T13:38:40.295Z,98886.91
2023-04-11T13:41:08.366Z,98879.06
2023-04-11T13:43:35.978Z,98875.63
2023-04-11T13:46:05.278Z,98880.88
2023-04-11T13:48:32.849Z,98871.25
2023-04-11T13:51:00.542Z,98879.19
2023-04-11T13:53:28.356Z,98877.81
2023-04-11T13:55:55.944Z,98874.72
2023-04-11T13:58:23.557Z,98870.94
2023-04-11T14:00:51.610Z,98872.47
2023-04-11T14:03:20.682Z,98870.81
2023-04-11T14:05:48.561Z,98875.72
2023-04-11T14:08:16.282Z,98880.59
2023-04-11T14:10:44.169Z,98876.66
2023-04-11T14:13:11.874Z,98878.03
2023-04-11T14:15:39.558Z,98881.63
2023-04-11T14:18:07.238Z,98882.38
2023-04-11T14:20:36.248Z,98881.09
2023-04-11T14:23:03.851Z,98875.22
2023-04-11T14:25:31.601Z,98870.00
2023-04-11T14:27:59.971Z,98874.53
2023-04-11T14:30:27.735Z,98862.53
2023-04-11T14:32:55.454Z,98864.75
2023-04-11T14:35:23.210Z,98870.06
2023-04-11T14:37:52.294Z,98873.81
2023-04-11T14:40:20.112Z,98866.50
2023-04-11T14:42:47.833Z,98857.06
2023-04-11T14:45:15.592Z,98871.44
2023-04-11T14:47:43.537Z,98858.16
2023-04-11T14:50:11.831Z,98862.63
2023-04-11T14:52:39.484Z,98867.28
2023-04-11T14:55:09.808Z,98860.03
2023-04-11T14:57:46.279Z,98856.38
2023-04-11T15:00:19.754Z,98861.84
2023-04-11T15:02:48.396Z,98862.06
2023-04-11T15:05:17.896Z,98858.66
2023-04-11T15:07:46.926Z,98850.78
2023-04-11T15:10:17.444Z,98839.09
2023-04-11T15:12:45.041Z,98843.81
2023-04-11T15:15:13.326Z,98836.69
2023-04-11T15:17:42.671Z,98832.00
2023-04-11T15:20:11.802Z,98842.84
2023-04-11T15:22:41.506Z,98844.44
2023-04-11T15:25:11.350Z,98841.69
2023-04-11T15:27:41.129Z,98846.34
2023-04-11T15:30:09.909Z,98850.72
2023-04-11T15:32:37.854Z,98846.34
2023-04-11T15:35:06.552Z,98845.06
2023-04-11T15:37:34.069Z,98837.31
2023-04-11T15:40:05.853Z,98848.25
2023-04-11T15:42:35.316Z,98848.53
2023-04-11T15:45:04.903Z,98849.72
2023-04-11T15:47:33.455Z,98852.09
2023-04-11T15:50:02.830Z,98849.19
2023-04-11T15:52:30.496Z,98848.16
2023-04-11T15:54:58.060Z,98834.44
2023-04-11T15:57:27.395Z,98844.34
2023-04-11T15:59:54.946Z,98852.06
2023-04-11T16:02:24.023Z,98847.06
2023-04-11T16:04:54.018Z,98839.72
2023-04-11T16:07:23.075Z,98853.63
2023-04-11T16:09:50.841Z,98851.63
2023-04-11T16:12:19.178Z,98843.56
2023-04-11T16:14:47.225Z,98843.75
2023-04-11T16:17:15.361Z,98837.44
2023-04-11T16:19:44.361Z,98843.56
2023-04-11T16:22:12.055Z,98842.22
2023-04-11T16:24:39.652Z,98836.34
2023-04-11T16:27:07.359Z,98837.16
2023-04-11T16:29:34.963Z,98832.69
2023-04-11T16:32:02.629Z,98812.75
2023-04-11T16:34:30.421Z,98837.28
2023-04-11T16:36:59.487Z,98827.88
2023-04-11T16:39:27.220Z,98825.72
2023-04-11T16:41:55.999Z,98818.16
2023-04-11T16:44:23.898Z,98823.19
2023-04-11T16:46:51.732Z,98806.44
2023-04-11T16:49:19.370Z,98814.09
2023-04-11T16:51:46.968Z,98808.47
2023-04-11T16:54:16.201Z,98804.34
2023-04-11T16:56:44.037Z,98799.69
2023-04-11T16:59:12.373Z,98809.22
2023-04-11T17:01:41.016Z,98809.97
2023-04-11T17:04:08.920Z,98814.78
2023-04-11T17:06:37.008Z,98815.56
2023-04-11T17:09:06.321Z,98785.50
2023-04-11T17:11:37.371Z,98816.03
2023-04-11T17:14:05.650Z,98809.78
2023-04-11T17:16:33.349Z,98813.28
2023-04-11T17:19:01.124Z,98815.63
2023-04-11T17:21:29.082Z,98810.34
2023-04-11T17:23:56.937Z,98808.13
2023-04-11T17:26:24.756Z,98805.41
2023-04-11T17:28:53.636Z,98810.09
2023-04-11T17:31:22.076Z,98806.59
2023-04-11T17:33:49.903Z,98804.97
2023-04-11T17:36:18.152Z,98801.88
2023-04-11T17:38:46.163Z,98801.91
2023-04-11T17:41:15.382Z,98800.91
2023-04-11T17:43:44.402Z,98808.75
2023-04-11T17:46:15.080Z,98804.13
2023-04-11T17:48:46.345Z,98808.25
2023-04-11T17:51:24.085Z,98804.19
2023-04-11T17:54:01.884Z,98811.09
2023-04-11T17:56:33.338Z,98810.66
2023-04-11T17:59:00.974Z,98816.78
2023-04-11T18:01:34.687Z,98820.84
2023-04-11T18:04:07.611Z,98819.22
2023-04-11T18:06:35.988Z,98819.06
2023-04-11T18:09:13.555Z,98808.22
2023-04-11T18:11:44.456Z,98814.13
2023-04-11T18:14:18.962Z,98820.22
2023-04-11T18:16:49.566Z,98812.38
2023-04-11T18:19:17.798Z,98809.66
2023-04-11T18:21:46.044Z,98814.09
2023-04-11T18:24:18.126Z,98806.00
2023-04-11T18:26:47.338Z,98810.44
2023-04-11T18:29:23.638Z,98814.78
2023-04-11T18:32:04.350Z,98815.94
2023-04-11T18:34:33.667Z,98816.81
2023-04-11T18:37:08.077Z,98812.56
2023-04-11T18:39:42.814Z,98808.97
2023-04-11T18:42:12.286Z,98812.31
2023-04-11T18:44:45.056Z,98813.56
2023-04-11T18:47:17.275Z,98820.69
2023-04-11T18:49:46.772Z,98818.28
2023-04-11T18:52:15.351Z,98826.03
2023-04-11T18:54:54.573Z,98812.94
2023-04-11T18:57:26.780Z,98809.53
2023-04-11T19:00:13.731Z,98806.34
2023-04-11T19:02:48.823Z,98812.16
2023-04-11T19:05:20.640Z,98805.97
2023-04-11T19:07:55.876Z,98802.94
2023-04-11T19:10:28.186Z,98796.56
2023-04-11T19:13:06.586Z,98804.34
2023-04-11T19:15:35.116Z,98799.59
2023-04-11T19:18:13.984Z,98793.00
2023-04-11T19:20:45.972Z,98796.03
2023-04-11T19:23:15.181Z,98788.34
2023-04-11T19:25:52.740Z,98792.47
2023-04-11T19:28:21.477Z,98789.84
2023-04-11T19:30:59.273Z,98786.25
2023-04-11T19:33:30.159Z,98780.28
2023-04-11T19:36:08.102Z,98786.34
2023-04-11T19:38:37.696Z,98785.31
2023-04-11T19:41:13.110Z,98784.88
2023-04-11T19:43:43.994Z,98774.72
2023-04-11T19:46:13.922Z,98778.97
2023-04-11T19:48:48.342Z,98779.50
2023-04-11T19:51:19.817Z,98770.69
2023-04-11T19:53:49.244Z,98767.34
2023-04-11T19:56:31.418Z,98773.06
2023-04-11T19:59:08.487Z,98773.78
2023-04-11T20:01:43.933Z,98769.13
2023-04-11T20:04:15.858Z,98771.75
2023-04-11T20:06:47.997Z,98762.22
2023-04-11T20:09:19.844Z,98761.44
2023-04-11T20:11:51.308Z,98759.13
2023-04-11T20:14:21.758Z,98760.38
2023-04-11T20:16:51.456Z,98750.28
2023-04-11T20:19:28.339Z,98748.31
2023-04-11T20:21:57.199Z,98752.09
2023-04-11T20:24:25.413Z,98746.47
2023-04-11T20:27:01.930Z,98739.50
2023-04-11T20:29:33.103Z,98731.94
2023-04-11T20:32:01.481Z,98737.84
2023-04-11T20:34:30.730Z,98733.09
2023-04-11T20:37:01.117Z,98727.06
2023-04-11T20:39:28.887Z,98726.13
2023-04-11T20:41:56.580Z,98722.25
2023-04-11T20:44:27.172Z,98714.19
2023-04-11T20:46:57.006Z,98710.09
2023-04-11T20:49:28.368Z,98708.38
2023-04-11T20:51:58.135Z,98697.38
2023-04-11T20:54:26.357Z,98692.19
2023-04-11T20:56:53.957Z,98686.28
2023-04-11T20:59:21.684Z,98692.03
2023-04-11T21:01:49.406Z,98688.63
2023-04-11T21:04:18.669Z,98689.28
2023-04-11T21:06:46.382Z,98683.94
2023-04-11T21:09:15.448Z,98677.34
2023-04-11T21:11:43.078Z,98674.09
2023-04-11T21:14:10.665Z,98677.25
2023-04-11T21:16:38.286Z,98676.81
2023-04-11T21:19:05.913Z,98671.91
2023-04-11T21:21:34.404Z,98666.38
2023-04-11T21:24:03.449Z,98660.44
2023-04-11T21:26:32.432Z,98650.38
2023-04-11T21:29:00.053Z,98650.94
2023-04-11T21:31:27.762Z,98643.44
2023-04-11T21:33:55.813Z,98643.59
2023-04-11T21:36:23.665Z,98644.03
2023-04-11T21:38:51.356Z,98636.66
2023-04-11T21:41:19.041Z,98630.47
2023-04-11T21:43:48.282Z,98630.41
2023-04-11T21:46:16.110Z,98629.47
2023-04-11T21:48:43.683Z,98619.56
2023-04-11T21:51:11.548Z,98628.91
2023-04-11T21:53:39.456Z,98618.16
2023-04-11T21:56:08.451Z,98610.78
2023-04-11T21:58:36.307Z,98607.44
2023-04-11T22:01:05.662Z,98612.41
2023-04-11T22:03:33.939Z,98621.38
2023-04-11T22:06:01.982Z,98598.34
2023-04-11T22:08:30.063Z,98586.03
2023-04-11T22:10:57.666Z,98594.84
2023-04-11T22:13:25.764Z,98592.91
2023-04-11T22:15:58.590Z,98586.25
2023-04-11T22:18:29.927Z,98583.31
2023-04-11T22:20:57.500Z,98582.16
2023-04-11T22:23:25.881Z,98575.50
2023-04-11T22:25:57.506Z,98578.66
2023-04-11T22:28:26.263Z,98571.31
2023-04-11T22:30:53.974Z,98580.53
2023-04-11T22:33:22.153Z,98571.88
2023-04-11T22:35:51.097Z,98565.06
2023-04-11T22:38:18.879Z,98561.50
2023-04-11T22:40:46.433Z,98555.75
2023-04-11T22:43:14.076Z,98556.59
2023-04-11T22:45:42.879Z,98548.56
2023-04-11T22:48:10.686Z,98547.47
2023-04-11T22:50:38.957Z,98540.13
2023-04-11T22:53:09.246Z,98534.94
2023-04-11T22:55:37.224Z,98537.63
2023-04-11T22:58:05.150Z,98534.38
2023-04-11T23:00:38.198Z,98534.75
2023-04-11T23:03:07.645Z,98530.97
2023-04-11T23:05:38.551Z,98528.13
2023-04-11T23:08:08.281Z,98532.59
2023-04-11T23:10:36.874Z,98516.81
2023-04-11T23:13:04.642Z,98522.16
2023-04-11T23:15:32.793Z,98517.22
2023-04-11T23:18:00.842Z,98504.91
2023-04-11T23:20:29.348Z,98510.72
2023-04-11T23:22:58.348Z,98513.25
2023-04-11T23:25:28.461Z,98505.47
2023-04-11T23:27:56.325Z,98501.22
2023-04-11T23:30:25.093Z,98506.69
2023-04-11T23:32:53.375Z,98493.94
2023-04-11T23:35:21.172Z,98498.13
2023-04-11T23:37:48.839Z,98496.72
2023-04-11T23:40:16.827Z,98496.25
2023-04-11T23:42:45.869Z,98495.16
2023-04-11T23:45:14.908Z,98491.84
2023-04-11T23:47:42.743Z,98487.59
2023-04-11T23:50:12.154Z,98485.03
2023-04-11T23:52:40.054Z,98483.78
2023-04-11T23:55:08.973Z,98471.88
2023-04-11T23:57:36.995Z,98474.34
